createdAt,value
2018-07-01T00:01:11.698Z,1.77
2018-07-01T00:03:46.131Z,1.90
2018-07-01T00:06:17.237Z,1.87
2018-07-01T00:08:46.293Z,2.40
2018-07-01T00:11:16.281Z,1.90
2018-07-01T00:13:46.301Z,1.93
2018-07-01T00:16:16.322Z,2.27
2018-07-01T00:18:46.427Z,2.03
2018-07-01T00:21:15.462Z,2.00
2018-07-01T00:23:44.523Z,2.25
2018-07-01T00:26:15.495Z,2.10
2018-07-01T00:28:45.515Z,1.90
2018-07-01T00:31:14.586Z,2.03
2018-07-01T00:33:43.633Z,2.30
2018-07-01T00:36:17.747Z,1.73
2018-07-01T00:38:46.808Z,1.53
2018-07-01T00:41:21.448Z,2.10
2018-07-01T00:43:55.260Z,2.07
2018-07-01T00:46:24.309Z,2.03
2018-07-01T00:48:53.358Z,3.57
2018-07-01T00:51:22.421Z,2.10
2018-07-01T00:53:51.512Z,2.40
2018-07-01T00:56:20.580Z,2.20
2018-07-01T00:58:49.643Z,2.30
2018-07-01T01:01:18.747Z,2.37
2018-07-01T01:03:48.777Z,1.87
2018-07-01T01:06:18.797Z,2.30
2018-07-01T01:08:47.853Z,2.30
2018-07-01T01:11:16.906Z,2.60
2018-07-01T01:16:25.222Z,2.00
2018-07-01T01:18:55.173Z,1.90
2018-07-01T01:21:25.178Z,2.40
2018-07-01T01:26:29.929Z,2.40
2018-07-01T01:28:58.995Z,2.70
2018-07-01T01:31:28.092Z,2.67
2018-07-01T01:33:57.129Z,2.80
2018-07-01T01:36:26.209Z,2.45
2018-07-01T01:38:55.269Z,2.07
2018-07-01T01:41:25.330Z,2.50
2018-07-01T01:43:57.701Z,2.47
2018-07-01T01:46:26.749Z,2.60
2018-07-01T01:51:31.569Z,2.55
2018-07-01T01:56:36.341Z,2.53
2018-07-01T01:59:13.781Z,2.50
2018-07-01T02:01:46.578Z,2.10
2018-07-01T02:04:17.561Z,2.07
2018-07-01T02:06:46.613Z,2.67
2018-07-01T02:09:15.697Z,2.17
2018-07-01T02:14:08.692Z,1.90
2018-07-01T02:16:37.761Z,2.17
2018-07-01T02:19:06.826Z,2.50
2018-07-01T02:21:37.839Z,2.20
2018-07-01T02:24:07.861Z,2.20
2018-07-01T02:26:37.886Z,2.57
2018-07-01T02:29:06.933Z,2.40
2018-07-01T02:31:35.987Z,2.37
2018-07-01T02:34:06.956Z,2.20
2018-07-01T02:36:36.937Z,2.80
2018-07-01T02:39:06.143Z,2.33
2018-07-01T02:41:36.214Z,2.23
2018-07-01T02:44:05.311Z,2.10
2018-07-01T02:46:44.699Z,3.27
2018-07-01T02:49:13.753Z,2.20
2018-07-01T02:54:18.646Z,2.53
2018-07-01T02:56:47.702Z,2.60
2018-07-01T02:59:16.747Z,3.13
2018-07-01T03:01:45.831Z,2.90
2018-07-01T03:04:14.973Z,2.80
2018-07-01T03:06:43.993Z,2.73
2018-07-01T03:09:15.020Z,2.50
2018-07-01T03:11:46.022Z,2.27
2018-07-01T03:14:15.082Z,2.70
2018-07-01T03:16:44.141Z,2.57
2018-07-01T03:21:49.895Z,2.40
2018-07-01T03:24:18.953Z,2.23
2018-07-01T03:29:23.772Z,2.65
2018-07-01T03:34:28.517Z,2.55
2018-07-01T03:39:33.599Z,2.78
2018-07-01T03:42:02.703Z,2.50
2018-07-01T03:44:32.678Z,2.50
2018-07-01T03:47:01.725Z,2.60
2018-07-01T03:49:30.886Z,2.97
2018-07-01T03:52:01.928Z,2.77
2018-07-01T03:54:31.009Z,2.27
2018-07-01T03:57:00.103Z,2.70
2018-07-01T03:59:30.153Z,2.40
2018-07-01T04:01:59.509Z,2.53
2018-07-01T04:04:28.594Z,2.43
2018-07-01T04:06:57.676Z,2.17
2018-07-01T04:12:02.316Z,2.70
2018-07-01T04:14:33.352Z,2.53
2018-07-01T04:17:09.652Z,2.20
2018-07-01T04:19:38.734Z,2.83
2018-07-01T04:22:08.717Z,3.13
2018-07-01T04:24:38.740Z,2.70
2018-07-01T04:27:11.721Z,2.70
2018-07-01T04:29:40.772Z,2.60
2018-07-01T04:32:13.475Z,2.73
2018-07-01T04:34:42.592Z,2.90
2018-07-01T04:37:11.649Z,2.80
2018-07-01T04:39:40.720Z,2.30
2018-07-01T04:42:09.776Z,2.93
2018-07-01T04:44:38.922Z,2.43
2018-07-01T04:47:07.997Z,2.90
2018-07-01T04:49:37.054Z,2.30
2018-07-01T04:54:53.105Z,2.55
2018-07-01T04:57:22.161Z,2.47
2018-07-01T04:59:51.209Z,2.30
2018-07-01T05:02:20.550Z,1.95
2018-07-01T05:04:50.536Z,1.80
2018-07-01T05:07:19.582Z,2.00
2018-07-01T05:09:49.558Z,2.00
2018-07-01T05:12:20.597Z,1.80
2018-07-01T05:14:49.665Z,1.57
2018-07-01T05:17:18.716Z,2.10
2018-07-01T05:19:51.780Z,1.60
2018-07-01T05:22:21.843Z,1.63
2018-07-01T05:24:50.906Z,1.37
2018-07-01T05:27:21.085Z,1.70
2018-07-01T05:29:50.284Z,1.70
2018-07-01T05:32:27.525Z,1.70
2018-07-01T05:37:32.289Z,1.70
2018-07-01T05:40:01.355Z,1.40
2018-07-01T05:42:30.768Z,1.63
2018-07-01T05:44:59.816Z,2.23
2018-07-01T05:52:46.216Z,1.40
2018-07-01T05:57:50.987Z,1.40
2018-07-01T06:00:24.732Z,1.67
2018-07-01T06:02:53.781Z,2.07
2018-07-01T06:05:22.860Z,1.87
2018-07-01T06:07:51.942Z,1.60
2018-07-01T06:10:21.294Z,1.83
2018-07-01T06:12:50.329Z,1.30
2018-07-01T06:15:19.439Z,1.60
2018-07-01T06:19:50.026Z,1.80
2018-07-01T06:22:19.154Z,1.73
2018-07-01T06:27:24.058Z,1.80
2018-07-01T06:29:53.116Z,1.53
2018-07-01T06:32:32.096Z,1.30
2018-07-01T06:35:01.241Z,1.57
2018-07-01T06:37:31.304Z,1.30
2018-07-01T06:40:00.359Z,1.60
2018-07-01T06:42:29.439Z,1.67
2018-07-01T06:44:58.639Z,1.33
2018-07-01T06:50:03.409Z,1.63
2018-07-01T06:55:08.255Z,1.30
2018-07-01T06:57:48.310Z,1.70
2018-07-01T07:00:19.474Z,1.77
2018-07-01T07:02:52.072Z,1.60
2018-07-01T07:05:22.030Z,1.50
2018-07-01T07:10:26.923Z,1.40
2018-07-01T07:12:56.011Z,1.57
2018-07-01T07:15:25.041Z,1.43
2018-07-01T07:17:54.093Z,1.40
2018-07-01T07:20:30.745Z,1.57
2018-07-01T07:28:14.729Z,1.60
2018-07-01T07:30:55.628Z,1.50
2018-07-01T07:33:26.720Z,1.40
2018-07-01T07:35:55.757Z,1.17
2018-07-01T07:38:25.245Z,1.20
2018-07-01T07:43:30.293Z,1.40
2018-07-01T07:48:35.085Z,1.65
2018-07-01T07:51:04.360Z,1.17
2018-07-01T07:53:33.453Z,1.43
2018-07-01T07:58:38.241Z,1.23
2018-07-01T08:01:07.681Z,1.65
2018-07-01T08:03:36.753Z,1.40
2018-07-01T08:06:05.898Z,1.52
2018-07-01T08:08:35.023Z,1.42
2018-07-01T08:11:05.098Z,1.57
2018-07-01T08:13:34.348Z,1.47
2018-07-01T08:16:05.425Z,1.10
2018-07-01T08:18:36.519Z,1.57
2018-07-01T08:21:05.562Z,1.47
2018-07-01T08:23:35.551Z,1.33
2018-07-01T08:26:04.841Z,1.23
2018-07-01T08:31:09.636Z,3.22
2018-07-01T08:33:38.700Z,1.50
2018-07-01T08:36:08.880Z,1.33
2018-07-01T08:38:37.929Z,1.20
2018-07-01T08:41:08.886Z,1.50
2018-07-01T08:43:52.354Z,1.20
2018-07-01T08:46:21.512Z,1.23
2018-07-01T08:48:50.640Z,1.10
2018-07-01T08:51:21.720Z,1.30
2018-07-01T08:53:51.763Z,1.20
2018-07-01T08:56:28.807Z,1.10
2018-07-01T08:58:57.903Z,1.30
2018-07-01T09:01:42.784Z,1.23
2018-07-01T09:09:23.326Z,1.50
2018-07-01T09:11:55.588Z,1.40
2018-07-01T09:14:26.689Z,1.40
2018-07-01T09:16:55.790Z,1.27
2018-07-01T09:19:32.200Z,1.30
2018-07-01T09:22:07.182Z,1.40
2018-07-01T09:24:36.246Z,1.10
2018-07-01T09:27:05.312Z,1.20
2018-07-01T09:29:34.513Z,1.20
2018-07-01T09:32:13.545Z,1.10
2018-07-01T09:34:42.638Z,1.17
2018-07-01T09:37:11.753Z,1.20
2018-07-01T09:39:40.988Z,1.27
2018-07-01T09:42:10.972Z,1.20
2018-07-01T09:47:15.899Z,1.10
2018-07-01T09:49:44.933Z,1.10
2018-07-01T09:52:13.990Z,1.20
2018-07-01T09:54:43.256Z,1.17
2018-07-01T09:59:49.289Z,1.05
2018-07-01T10:02:18.702Z,1.00
2018-07-01T10:04:47.730Z,1.10
2018-07-01T10:07:17.742Z,0.90
2018-07-01T10:09:48.781Z,1.10
2018-07-01T10:12:28.646Z,1.20
2018-07-01T10:14:57.775Z,1.10
2018-07-01T10:17:27.738Z,1.10
2018-07-01T10:19:56.825Z,1.00
2018-07-01T10:22:27.881Z,1.27
2018-07-01T10:25:01.189Z,0.93
2018-07-01T10:27:30.243Z,0.90
2018-07-01T10:29:59.389Z,0.90
2018-07-01T10:32:35.754Z,1.08
2018-07-01T10:35:06.789Z,0.70
2018-07-01T10:37:39.266Z,0.80
2018-07-01T10:40:12.198Z,1.10
2018-07-01T10:42:41.424Z,1.10
2018-07-01T10:45:10.493Z,0.93
2018-07-01T10:47:40.470Z,0.90
2018-07-01T10:50:11.575Z,0.80
2018-07-01T10:52:50.037Z,1.00
2018-07-01T10:55:19.350Z,1.23
2018-07-01T10:57:48.391Z,1.40
2018-07-01T11:00:17.451Z,1.00
2018-07-01T11:02:47.559Z,1.20
2018-07-01T11:05:16.879Z,1.10
2018-07-01T11:07:45.945Z,0.70
2018-07-01T11:10:15.012Z,1.20
2018-07-01T11:12:44.361Z,1.20
2018-07-01T11:15:16.863Z,1.27
2018-07-01T11:17:45.919Z,1.30
2018-07-01T11:20:16.956Z,0.70
2018-07-01T11:22:45.932Z,0.97
2018-07-01T11:25:18.962Z,0.80
2018-07-01T11:27:48.022Z,1.10
2018-07-01T11:30:17.275Z,0.97
2018-07-01T11:32:48.551Z,1.00
2018-07-01T11:35:17.593Z,0.80
2018-07-01T11:37:46.649Z,1.03
2018-07-01T11:42:51.511Z,1.00
2018-07-01T11:45:24.785Z,1.27
2018-07-01T11:47:53.843Z,1.10
2018-07-01T11:50:23.909Z,1.00
2018-07-01T11:55:28.774Z,1.10
2018-07-01T11:57:57.997Z,1.10
2018-07-01T12:00:27.064Z,0.90
2018-07-01T12:02:59.858Z,1.50
2018-07-01T12:05:28.971Z,1.10
2018-07-01T12:07:57.981Z,1.20
2018-07-01T12:10:27.118Z,1.10
2018-07-01T12:12:56.195Z,1.00
2018-07-01T12:15:25.253Z,1.10
2018-07-01T12:17:55.259Z,1.60
2018-07-01T12:20:24.583Z,1.20
2018-07-01T12:25:29.527Z,1.20
2018-07-01T12:27:58.594Z,1.27
2018-07-01T12:30:28.887Z,1.00
2018-07-01T12:32:57.994Z,1.20
2018-07-01T12:35:34.615Z,1.30
2018-07-01T12:38:05.595Z,1.27
2018-07-01T12:40:34.657Z,1.20
2018-07-01T12:45:39.578Z,1.12
2018-07-01T12:48:08.639Z,1.10
2018-07-01T12:50:37.705Z,1.70
2018-07-01T12:53:06.787Z,1.10
2018-07-01T12:55:35.838Z,1.20
2018-07-01T12:58:05.046Z,1.20
2018-07-01T13:00:34.302Z,1.10
2018-07-01T13:03:03.341Z,1.40
2018-07-01T13:05:32.400Z,1.17
2018-07-01T13:08:03.356Z,1.52
2018-07-01T13:13:08.216Z,1.40
2018-07-01T13:15:37.658Z,7.35
2018-07-01T13:18:07.734Z,1.10
2018-07-01T13:23:16.861Z,1.00
2018-07-01T13:25:46.901Z,1.40
2018-07-01T13:28:17.049Z,2.50
2018-07-01T13:30:46.207Z,1.30
2018-07-01T13:33:15.242Z,1.10
2018-07-01T13:38:20.086Z,1.90
2018-07-01T13:40:50.080Z,1.30
2018-07-01T13:43:19.171Z,1.20
2018-07-01T13:45:48.216Z,1.50
2018-07-01T13:50:53.157Z,1.23
2018-07-01T13:53:24.298Z,1.00
2018-07-01T13:55:54.676Z,2.00
2018-07-01T13:58:24.744Z,1.90
2018-07-01T14:00:58.824Z,1.30
2018-07-01T14:03:27.853Z,1.87
2018-07-01T14:06:00.827Z,1.17
2018-07-01T14:08:29.992Z,1.83
2018-07-01T14:10:59.139Z,1.87
2018-07-01T14:13:28.193Z,1.23
2018-07-01T14:15:57.261Z,1.07
2018-07-01T14:18:26.327Z,1.10
2018-07-01T14:20:56.614Z,1.10
2018-07-01T14:23:25.675Z,1.13
2018-07-01T14:25:54.745Z,1.23
2018-07-01T14:28:23.802Z,1.13
2018-07-01T14:30:53.051Z,1.40
2018-07-01T14:33:22.113Z,1.37
2018-07-01T14:35:51.182Z,1.33
2018-07-01T14:38:20.251Z,0.97
2018-07-01T14:40:50.506Z,1.00
2018-07-01T14:43:19.744Z,0.77
2018-07-01T14:45:50.826Z,1.20
2018-07-01T14:48:19.895Z,1.10
2018-07-01T14:50:48.958Z,1.27
2018-07-01T14:53:19.237Z,1.25
2018-07-01T14:55:48.408Z,1.10
2018-07-01T15:00:53.249Z,1.30
2018-07-01T15:03:22.321Z,1.00
2018-07-01T15:05:51.377Z,1.43
2018-07-01T15:08:20.453Z,0.80
2018-07-01T15:10:49.774Z,0.97
2018-07-01T15:13:18.821Z,1.00
2018-07-01T15:15:47.885Z,1.40
2018-07-01T15:18:16.973Z,1.00
2018-07-01T15:23:23.849Z,1.20
2018-07-01T15:25:54.849Z,1.27
2018-07-01T15:28:23.986Z,1.10
2018-07-01T15:30:53.184Z,0.90
2018-07-01T15:35:59.026Z,0.90
2018-07-01T15:38:28.310Z,1.10
2018-07-01T15:40:58.362Z,1.20
2018-07-01T15:48:45.966Z,0.70
2018-07-01T15:51:14.971Z,0.90
2018-07-01T15:53:44.533Z,0.83
2018-07-01T15:58:49.602Z,1.00
2018-07-01T16:01:18.701Z,0.73
2018-07-01T16:03:47.929Z,1.10
2018-07-01T16:08:52.850Z,0.98
2018-07-01T16:11:22.059Z,0.97
2018-07-01T16:13:51.143Z,1.30
2018-07-01T16:18:57.053Z,1.70
2018-07-01T16:24:01.979Z,1.10
2018-07-01T16:29:06.837Z,0.82
2018-07-01T16:31:37.851Z,0.70
2018-07-01T16:34:09.086Z,1.20
2018-07-01T16:36:38.313Z,1.00
2018-07-01T16:39:07.341Z,0.80
2018-07-01T16:41:36.407Z,1.00
2018-07-01T16:44:05.458Z,1.20
2018-07-01T16:46:34.669Z,0.80
2018-07-01T16:54:23.697Z,1.10
2018-07-01T16:56:53.731Z,1.02
2018-07-01T16:59:22.871Z,1.53
2018-07-01T17:01:52.006Z,1.60
2018-07-01T17:04:21.070Z,1.60
2018-07-01T17:06:50.214Z,1.33
2018-07-01T17:11:55.237Z,2.10
2018-07-01T17:14:24.291Z,1.58
2018-07-01T17:16:57.270Z,1.90
2018-07-01T17:22:02.144Z,1.27
2018-07-01T17:24:32.125Z,1.30
2018-07-01T17:27:04.574Z,1.23
2018-07-01T17:37:34.603Z,1.80
2018-07-01T17:42:41.949Z,1.90
2018-07-01T17:45:34.521Z,1.33
2018-07-01T17:48:04.583Z,1.30
2018-07-01T17:50:48.150Z,1.10
2018-07-01T17:53:19.209Z,2.37
2018-07-01T17:55:52.160Z,1.37
2018-07-01T17:58:46.111Z,1.47
2018-07-01T18:01:15.176Z,1.30
2018-07-01T18:03:48.080Z,1.10
2018-07-01T18:06:17.432Z,1.00
2018-07-01T18:08:46.492Z,2.33
2018-07-01T18:11:15.700Z,1.30
2018-07-01T18:13:46.732Z,1.13
2018-07-01T18:16:26.962Z,1.00
2018-07-01T18:21:41.213Z,1.20
2018-07-01T18:24:35.141Z,0.93
2018-07-01T18:26:36.273Z,1.63
2018-07-01T18:29:16.772Z,1.97
2018-07-01T18:31:46.900Z,1.57
2018-07-01T18:34:15.861Z,1.20
2018-07-01T18:36:44.940Z,1.13
2018-07-01T18:39:14.055Z,1.23
2018-07-01T18:44:18.905Z,1.50
2018-07-01T18:49:23.795Z,1.10
2018-07-01T18:51:57.118Z,1.37
2018-07-01T18:57:01.940Z,1.33
2018-07-01T18:59:30.983Z,1.20
2018-07-01T19:02:00.953Z,1.80
2018-07-01T19:04:30.020Z,1.50
2018-07-01T19:07:01.235Z,1.53
2018-07-01T19:09:31.171Z,1.43
2018-07-01T19:12:04.534Z,1.50
2018-07-01T19:14:33.582Z,1.30
2018-07-01T19:22:18.294Z,1.40
2018-07-01T19:24:47.354Z,1.53
2018-07-01T19:27:19.476Z,1.47
2018-07-01T19:29:48.536Z,1.50
2018-07-01T19:32:17.616Z,1.50
2018-07-01T19:34:46.725Z,1.30
2018-07-01T19:37:17.691Z,1.40
2018-07-01T19:39:51.401Z,1.50
2018-07-01T19:42:20.477Z,1.97
2018-07-01T19:44:49.493Z,1.43
2018-07-01T19:49:54.331Z,2.73
2018-07-01T19:52:30.797Z,2.30
2018-07-01T19:55:07.867Z,2.00
2018-07-01T20:00:22.142Z,2.00
2018-07-01T20:05:30.381Z,1.97
2018-07-01T20:08:01.410Z,1.80
2018-07-01T20:13:07.149Z,2.40
2018-07-01T20:15:36.193Z,2.77
2018-07-01T20:18:07.149Z,1.60
2018-07-01T20:28:25.680Z,1.60
2018-07-01T20:31:01.798Z,1.70
2018-07-01T20:33:36.608Z,1.43
2018-07-01T20:38:41.378Z,1.80
2018-07-01T20:41:11.368Z,1.80
2018-07-01T20:43:40.375Z,2.00
2018-07-01T20:48:47.077Z,1.70
2018-07-01T20:51:17.082Z,1.92
2018-07-01T20:56:21.864Z,3.20
2018-07-01T20:58:50.917Z,4.40
2018-07-01T21:01:19.978Z,4.00
2018-07-01T21:06:24.801Z,3.80
2018-07-01T21:11:29.666Z,4.60
2018-07-01T21:13:58.736Z,4.60
2018-07-01T21:16:27.835Z,9.50
2018-07-01T21:21:32.606Z,2.40
2018-07-01T21:24:02.619Z,2.30
2018-07-01T21:26:31.673Z,2.20
2018-07-01T21:29:02.721Z,2.23
2018-07-01T21:31:32.772Z,2.03
2018-07-01T21:34:02.802Z,2.20
2018-07-01T21:39:07.561Z,1.90
2018-07-01T21:41:37.567Z,2.30
2018-07-01T21:46:42.349Z,2.30
2018-07-01T21:49:11.466Z,1.60
2018-07-01T21:54:16.286Z,1.80
2018-07-01T21:56:45.413Z,1.87
2018-07-01T21:59:15.399Z,1.53
2018-07-01T22:06:56.948Z,1.50
2018-07-01T22:09:29.261Z,1.70
2018-07-01T22:12:16.272Z,1.63
2018-07-01T22:14:45.330Z,1.50
2018-07-01T22:17:14.386Z,1.90
2018-07-01T22:22:19.153Z,2.60
2018-07-01T22:24:48.239Z,2.50
2018-07-01T22:27:17.286Z,1.83
2018-07-01T22:29:46.329Z,1.97
2018-07-01T22:32:16.433Z,1.70
2018-07-01T22:34:45.503Z,1.57
2018-07-01T22:37:14.546Z,2.00
2018-07-01T22:39:43.604Z,1.80
2018-07-01T22:42:12.665Z,1.70
2018-07-01T22:44:41.718Z,1.80
2018-07-01T22:47:10.761Z,2.10
2018-07-01T22:49:39.820Z,1.70
2018-07-01T22:52:08.872Z,1.50
2018-07-01T22:54:37.958Z,1.90
2018-07-01T22:57:07.016Z,2.10
2018-07-01T22:59:36.057Z,1.50
2018-07-01T23:02:06.064Z,1.70
2018-07-01T23:04:36.030Z,1.70
2018-07-01T23:09:40.873Z,1.53
2018-07-01T23:12:09.937Z,1.70
2018-07-01T23:14:47.212Z,1.60
2018-07-01T23:17:17.235Z,1.73
2018-07-01T23:19:46.300Z,2.40
2018-07-01T23:22:15.390Z,1.87
2018-07-01T23:27:20.219Z,1.50
2018-07-01T23:29:49.294Z,1.90
2018-07-01T23:32:23.091Z,1.77
2018-07-01T23:34:53.047Z,1.70
2018-07-01T23:39:57.881Z,1.63
2018-07-01T23:42:27.945Z,1.83
2018-07-01T23:44:57.013Z,1.67
2018-07-01T23:47:26.076Z,1.93
2018-07-01T23:49:55.127Z,1.80
2018-07-01T23:52:27.253Z,1.53
2018-07-01T23:54:56.301Z,1.47
